createdAt,value
2023-05-12T00:01:17.778Z,54.75
2023-05-12T00:03:44.892Z,54.59
2023-05-12T00:06:12.603Z,54.32
2023-05-12T00:08:39.464Z,54.02
2023-05-12T00:11:06.338Z,53.63
2023-05-12T00:13:33.417Z,53.23
2023-05-12T00:16:00.725Z,52.92
2023-05-12T00:18:28.753Z,52.29
2023-05-12T00:20:56.067Z,52.11
2023-05-12T00:23:23.436Z,52.04
2023-05-12T00:25:50.534Z,52.19
2023-05-12T00:28:18.402Z,52.05
2023-05-12T00:30:45.808Z,51.46
2023-05-12T00:33:12.832Z,51.13
2023-05-12T00:35:39.873Z,51.41
2023-05-12T00:38:06.780Z,51.23
2023-05-12T00:40:33.882Z,50.65
2023-05-12T00:43:00.722Z,50.05
2023-05-12T00:45:29.950Z,49.65
2023-05-12T00:47:57.329Z,49.50
2023-05-12T00:50:24.530Z,49.70
2023-05-12T00:52:51.366Z,50.11
2023-05-12T00:55:18.257Z,50.27
2023-05-12T00:57:45.662Z,50.58
2023-05-12T01:00:14.193Z,50.83
2023-05-12T01:02:42.382Z,50.92
2023-05-12T01:05:10.146Z,50.89
2023-05-12T01:07:37.761Z,50.74
2023-05-12T01:10:05.362Z,50.83
2023-05-12T01:12:34.917Z,51.04
2023-05-12T01:15:02.812Z,51.21
2023-05-12T01:17:32.979Z,51.31
2023-05-12T01:20:01.843Z,51.36
2023-05-12T01:22:31.378Z,51.47
2023-05-12T01:25:00.038Z,51.69
2023-05-12T01:27:29.002Z,51.96
2023-05-12T01:29:59.048Z,52.12
2023-05-12T01:32:26.569Z,51.97
2023-05-12T01:34:53.775Z,51.93
2023-05-12T01:37:21.336Z,52.25
2023-05-12T01:39:48.621Z,52.30
2023-05-12T01:42:20.406Z,52.41
2023-05-12T01:44:47.736Z,52.46
2023-05-12T01:47:16.174Z,52.54
2023-05-12T01:49:49.252Z,52.64
2023-05-12T01:52:16.656Z,52.75
2023-05-12T01:54:43.780Z,52.76
2023-05-12T01:57:11.455Z,52.81
2023-05-12T01:59:38.787Z,52.81
2023-05-12T02:02:06.765Z,52.81
2023-05-12T02:04:34.816Z,52.70
2023-05-12T02:07:02.437Z,52.75
2023-05-12T02:09:29.592Z,52.85
2023-05-12T02:12:00.107Z,53.12
2023-05-12T02:14:27.041Z,53.40
2023-05-12T02:16:55.653Z,53.56
2023-05-12T02:19:23.661Z,53.62
2023-05-12T02:21:50.587Z,53.70
2023-05-12T02:24:17.621Z,53.82
2023-05-12T02:26:45.115Z,53.82
2023-05-12T02:29:13.183Z,54.04
2023-05-12T02:31:40.369Z,54.06
2023-05-12T02:34:16.082Z,54.22
2023-05-12T02:36:42.996Z,54.39
2023-05-12T02:39:10.906Z,54.34
2023-05-12T02:41:37.899Z,54.33
2023-05-12T02:44:05.340Z,54.51
2023-05-12T02:46:32.443Z,54.72
2023-05-12T02:48:59.482Z,55.20
2023-05-12T02:51:26.455Z,55.57
2023-05-12T02:53:53.404Z,55.89
2023-05-12T02:56:20.909Z,55.87
2023-05-12T02:58:48.243Z,55.62
2023-05-12T03:01:15.188Z,55.41
2023-05-12T03:03:42.524Z,54.92
2023-05-12T03:06:09.976Z,54.69
2023-05-12T03:08:37.080Z,54.80
2023-05-12T03:11:04.391Z,54.97
2023-05-12T03:13:31.541Z,55.18
2023-05-12T03:16:01.772Z,55.46
2023-05-12T03:18:29.994Z,55.73
2023-05-12T03:20:57.292Z,55.93
2023-05-12T03:23:24.850Z,55.97
2023-05-12T03:25:51.817Z,55.90
2023-05-12T03:28:19.209Z,55.88
2023-05-12T03:30:46.129Z,55.46
2023-05-12T03:33:13.191Z,55.08
2023-05-12T03:35:40.166Z,54.85
2023-05-12T03:38:07.264Z,54.36
2023-05-12T03:40:34.194Z,52.53
2023-05-12T03:43:01.174Z,51.35
2023-05-12T03:45:28.203Z,50.64
2023-05-12T03:47:55.449Z,50.49
2023-05-12T03:50:22.570Z,50.39
2023-05-12T03:52:49.581Z,50.08
2023-05-12T03:55:16.908Z,49.73
2023-05-12T03:57:44.042Z,49.55
2023-05-12T04:00:11.888Z,49.17
2023-05-12T04:02:44.200Z,48.80
2023-05-12T04:05:11.318Z,48.65
2023-05-12T04:07:38.479Z,48.35
2023-05-12T04:10:05.865Z,48.25
2023-05-12T04:12:33.053Z,48.18
2023-05-12T04:15:00.475Z,48.00
2023-05-12T04:17:27.514Z,47.96
2023-05-12T04:19:54.631Z,48.15
2023-05-12T04:22:23.443Z,47.67
2023-05-12T04:24:52.154Z,47.09
2023-05-12T04:27:19.246Z,46.78
2023-05-12T04:29:46.197Z,46.42
2023-05-12T04:32:13.579Z,45.90
2023-05-12T04:34:40.710Z,45.91
2023-05-12T04:37:08.361Z,45.77
2023-05-12T04:39:35.575Z,45.49
2023-05-12T04:42:03.256Z,45.57
2023-05-12T04:44:32.684Z,45.64
2023-05-12T04:47:00.228Z,45.56
2023-05-12T04:49:27.272Z,45.36
2023-05-12T04:51:54.490Z,45.57
2023-05-12T04:54:21.956Z,45.92
2023-05-12T04:56:49.288Z,46.24
2023-05-12T04:59:16.289Z,46.31
2023-05-12T05:01:44.201Z,46.34
2023-05-12T05:04:11.099Z,46.12
2023-05-12T05:06:38.030Z,46.19
2023-05-12T05:09:05.874Z,46.48
2023-05-12T05:11:32.838Z,46.61
2023-05-12T05:13:59.965Z,46.95
2023-05-12T05:16:28.448Z,47.31
2023-05-12T05:18:58.623Z,47.52
2023-05-12T05:21:26.883Z,47.66
2023-05-12T05:23:54.487Z,47.83
2023-05-12T05:26:22.355Z,48.05
2023-05-12T05:28:55.509Z,48.36
2023-05-12T05:31:24.354Z,48.56
2023-05-12T05:33:51.745Z,48.76
2023-05-12T05:36:20.890Z,48.92
2023-05-12T05:38:48.980Z,48.93
2023-05-12T05:41:16.284Z,48.49
2023-05-12T05:43:43.255Z,48.34
2023-05-12T05:46:10.445Z,48.50
2023-05-12T05:48:38.626Z,48.43
2023-05-12T05:51:06.749Z,48.09
2023-05-12T05:53:33.791Z,47.83
2023-05-12T05:56:01.550Z,48.21
2023-05-12T05:58:28.925Z,47.82
2023-05-12T06:00:56.118Z,47.24
2023-05-12T06:03:23.608Z,47.15
2023-05-12T06:05:50.729Z,47.05
2023-05-12T06:08:18.050Z,47.05
2023-05-12T06:10:45.504Z,47.18
2023-05-12T06:13:12.557Z,47.24
2023-05-12T06:15:39.517Z,47.43
2023-05-12T06:18:07.120Z,47.43
2023-05-12T06:20:34.843Z,47.09
2023-05-12T06:23:02.137Z,47.02
2023-05-12T06:25:29.318Z,46.90
2023-05-12T06:27:56.384Z,46.52
2023-05-12T06:30:23.799Z,46.18
2023-05-12T06:35:22.543Z,45.96
2023-05-12T06:37:51.072Z,45.12
2023-05-12T06:40:18.247Z,44.23
2023-05-12T06:42:45.284Z,43.28
2023-05-12T06:45:16.285Z,42.40
2023-05-12T06:47:43.572Z,41.98
2023-05-12T06:50:11.021Z,41.62
2023-05-12T06:52:38.316Z,42.15
2023-05-12T06:55:07.155Z,41.84
2023-05-12T06:57:34.061Z,41.24
2023-05-12T07:00:03.219Z,40.71
2023-05-12T07:02:30.838Z,40.14
2023-05-12T07:04:58.013Z,39.89
2023-05-12T07:07:24.967Z,39.76
2023-05-12T07:09:51.899Z,39.64
2023-05-12T07:12:18.812Z,39.86
2023-05-12T07:14:45.778Z,39.13
2023-05-12T07:17:12.762Z,38.55
2023-05-12T07:19:40.281Z,38.73
2023-05-12T07:22:07.330Z,38.68
2023-05-12T07:24:34.359Z,38.18
2023-05-12T07:27:01.376Z,37.89
2023-05-12T07:29:28.484Z,37.74
2023-05-12T07:31:55.934Z,37.62
2023-05-12T07:34:22.912Z,37.39
2023-05-12T07:36:49.965Z,36.94
2023-05-12T07:39:23.361Z,37.03
2023-05-12T07:41:51.159Z,37.20
2023-05-12T07:44:18.064Z,37.26
2023-05-12T07:46:45.029Z,36.92
2023-05-12T07:49:12.086Z,37.43
2023-05-12T07:51:39.571Z,37.64
2023-05-12T07:54:07.309Z,37.72
2023-05-12T07:56:34.372Z,37.19
2023-05-12T07:59:01.326Z,36.46
2023-05-12T08:01:28.230Z,36.11
2023-05-12T08:03:55.319Z,36.11
2023-05-12T08:06:22.264Z,35.56
2023-05-12T08:08:49.942Z,35.82
2023-05-12T08:11:16.905Z,35.61
2023-05-12T08:13:43.735Z,35.15
2023-05-12T08:16:10.573Z,35.11
2023-05-12T08:18:37.534Z,35.45
2023-05-12T08:21:04.391Z,35.81
2023-05-12T08:23:31.351Z,35.17
2023-05-12T08:25:58.202Z,34.52
2023-05-12T08:28:25.032Z,33.97
2023-05-12T08:30:51.887Z,33.62
2023-05-12T08:33:18.738Z,33.09
2023-05-12T08:35:45.611Z,32.52
2023-05-12T08:38:12.483Z,32.48
2023-05-12T08:40:47.140Z,32.85
2023-05-12T08:43:26.112Z,32.89
2023-05-12T08:45:57.736Z,32.90
2023-05-12T08:48:27.612Z,32.84
2023-05-12T08:50:54.588Z,32.23
2023-05-12T08:53:24.510Z,31.93
2023-05-12T08:57:08.984Z,31.75
2023-05-12T08:58:42.016Z,30.98
2023-05-12T09:01:10.324Z,31.27
2023-05-12T09:03:37.212Z,31.27
2023-05-12T09:06:04.401Z,31.12
2023-05-12T09:08:33.266Z,30.95
2023-05-12T09:11:00.596Z,30.78
2023-05-12T09:13:36.789Z,30.90
2023-05-12T09:16:04.243Z,30.04
2023-05-12T09:18:56.967Z,29.38
2023-05-12T09:21:24.074Z,29.52
2023-05-12T09:23:59.162Z,29.59
2023-05-12T09:26:27.131Z,29.00
2023-05-12T09:28:55.163Z,27.83
2023-05-12T09:31:23.140Z,27.51
2023-05-12T09:33:51.055Z,27.64
2023-05-12T09:36:27.042Z,27.66
2023-05-12T09:39:09.256Z,27.08
2023-05-12T09:41:40.135Z,26.50
2023-05-12T09:44:08.587Z,26.21
2023-05-12T09:46:36.075Z,26.15
2023-05-12T09:49:06.597Z,25.54
2023-05-12T09:51:33.512Z,26.09
2023-05-12T09:54:00.943Z,26.72
2023-05-12T09:56:29.390Z,26.47
2023-05-12T09:58:59.515Z,25.97
2023-05-12T10:01:28.076Z,26.29
2023-05-12T10:03:56.725Z,26.36
2023-05-12T10:06:28.937Z,25.75
2023-05-12T10:10:52.427Z,25.50
2023-05-12T10:13:19.383Z,24.62
2023-05-12T10:15:47.436Z,22.87
2023-05-12T10:18:15.069Z,22.99
2023-05-12T10:20:44.168Z,23.49
2023-05-12T10:23:12.794Z,24.47
2023-05-12T10:25:41.453Z,24.95
2023-05-12T10:28:08.985Z,24.79
2023-05-12T10:30:38.168Z,24.53
2023-05-12T10:33:05.960Z,24.78
2023-05-12T10:35:34.362Z,25.33
2023-05-12T10:38:08.873Z,25.04
2023-05-12T10:40:36.088Z,25.06
2023-05-12T10:43:03.310Z,24.75
2023-05-12T10:45:35.627Z,25.02
2023-05-12T10:48:07.101Z,24.92
2023-05-12T10:50:34.130Z,24.65
2023-05-12T10:53:01.053Z,24.22
2023-05-12T10:55:35.973Z,24.35
2023-05-12T10:58:10.893Z,23.66
2023-05-12T11:00:46.778Z,23.38
2023-05-12T11:03:15.260Z,23.21
2023-05-12T11:05:44.187Z,23.10
2023-05-12T11:08:11.848Z,23.22
2023-05-12T11:10:41.680Z,23.06
2023-05-12T11:13:08.625Z,23.46
2023-05-12T11:15:35.465Z,23.75
2023-05-12T11:18:03.308Z,23.92
2023-05-12T11:20:31.044Z,24.25
2023-05-12T11:22:58.168Z,24.44
2023-05-12T11:25:27.403Z,24.43
2023-05-12T11:27:54.592Z,24.63
2023-05-12T11:30:21.953Z,24.15
2023-05-12T11:32:48.901Z,23.59
2023-05-12T11:35:17.749Z,23.64
2023-05-12T11:37:45.448Z,22.90
2023-05-12T11:40:16.519Z,22.33
2023-05-12T11:42:48.310Z,22.90
2023-05-12T11:45:22.488Z,22.53
2023-05-12T11:47:49.527Z,22.34
2023-05-12T11:50:23.592Z,22.22
2023-05-12T11:52:51.577Z,22.61
2023-05-12T11:55:23.630Z,23.03
2023-05-12T11:57:58.860Z,22.71
2023-05-12T12:00:33.232Z,22.39
2023-05-12T12:03:13.967Z,22.05
2023-05-12T12:05:42.030Z,22.31
2023-05-12T12:08:13.693Z,22.00
2023-05-12T12:10:47.210Z,22.54
2023-05-12T12:13:23.133Z,23.07
2023-05-12T12:15:50.852Z,23.06
2023-05-12T12:18:19.178Z,21.97
2023-05-12T12:20:49.089Z,21.37
2023-05-12T12:23:16.045Z,22.40
2023-05-12T12:25:43.672Z,22.02
2023-05-12T12:28:10.800Z,22.71
2023-05-12T12:30:37.960Z,22.77
2023-05-12T12:33:04.976Z,23.49
2023-05-12T12:35:31.984Z,23.03
2023-05-12T12:37:59.498Z,22.76
2023-05-12T12:40:26.328Z,22.72
2023-05-12T12:42:53.538Z,22.46
2023-05-12T12:45:20.724Z,22.24
2023-05-12T12:47:47.759Z,21.90
2023-05-12T12:50:15.036Z,21.83
2023-05-12T12:52:42.032Z,21.47
2023-05-12T12:55:10.026Z,21.22
2023-05-12T12:57:37.048Z,20.56
2023-05-12T13:00:04.999Z,20.48
2023-05-12T13:02:31.898Z,20.43
2023-05-12T13:04:58.922Z,20.15
2023-05-12T13:07:26.028Z,19.80
2023-05-12T13:09:53.097Z,20.22
2023-05-12T13:12:19.891Z,20.54
2023-05-12T13:14:46.748Z,21.03
2023-05-12T13:17:13.553Z,20.75
2023-05-12T13:19:40.736Z,20.87
2023-05-12T13:22:07.688Z,21.23
2023-05-12T13:24:34.540Z,21.05
2023-05-12T13:27:01.392Z,20.51
2023-05-12T13:29:28.441Z,20.70
2023-05-12T13:31:55.580Z,20.52
2023-05-12T13:34:22.548Z,20.42
2023-05-12T13:36:49.572Z,20.40
2023-05-12T13:39:18.411Z,20.41
2023-05-12T13:41:46.565Z,20.37
2023-05-12T13:44:13.426Z,20.10
2023-05-12T13:46:40.913Z,19.90
2023-05-12T13:49:07.938Z,19.61
2023-05-12T13:51:34.915Z,18.73
2023-05-12T13:54:01.885Z,17.95
2023-05-12T13:56:28.694Z,16.19
2023-05-12T13:58:55.561Z,15.34
2023-05-12T14:01:22.535Z,14.72
2023-05-12T14:03:49.556Z,13.76
2023-05-12T14:06:16.465Z,13.14
2023-05-12T14:08:43.338Z,12.29
2023-05-12T14:11:10.282Z,11.85
2023-05-12T14:13:37.257Z,11.69
2023-05-12T14:16:04.897Z,11.12
2023-05-12T14:18:32.455Z,10.99
2023-05-12T14:20:59.513Z,11.92
2023-05-12T14:23:26.459Z,12.59
2023-05-12T14:25:53.407Z,13.43
2023-05-12T14:28:20.413Z,14.25
2023-05-12T14:30:48.932Z,15.50
2023-05-12T14:33:15.827Z,16.39
2023-05-12T14:35:44.718Z,16.98
2023-05-12T14:38:15.201Z,17.43
2023-05-12T14:40:42.702Z,16.95
2023-05-12T14:43:09.675Z,15.57
2023-05-12T14:45:36.578Z,14.64
2023-05-12T14:48:03.657Z,13.44
2023-05-12T14:50:30.674Z,12.86
2023-05-12T14:52:57.703Z,12.24
2023-05-12T14:55:25.396Z,11.81
2023-05-12T14:57:52.365Z,11.68
2023-05-12T15:00:23.561Z,11.73
2023-05-12T15:02:50.538Z,11.85
2023-05-12T15:05:17.458Z,12.25
2023-05-12T15:07:44.408Z,12.10
2023-05-12T15:10:11.317Z,12.28
2023-05-12T15:12:38.135Z,12.32
2023-05-12T15:15:08.533Z,12.24
2023-05-12T15:17:35.677Z,12.42
2023-05-12T15:20:03.855Z,13.01
2023-05-12T15:22:31.689Z,13.19
2023-05-12T15:24:59.161Z,12.95
2023-05-12T15:27:26.711Z,13.01
2023-05-12T15:29:54.076Z,12.74
2023-05-12T15:32:21.012Z,12.66
2023-05-12T15:34:47.957Z,12.33
2023-05-12T15:37:14.860Z,12.11
2023-05-12T15:39:41.697Z,11.85
2023-05-12T15:42:09.407Z,11.89
2023-05-12T15:44:36.462Z,11.86
2023-05-12T15:47:03.527Z,11.71
2023-05-12T15:49:30.459Z,11.49
2023-05-12T15:51:57.408Z,11.38
2023-05-12T15:54:26.615Z,11.36
2023-05-12T15:56:53.445Z,11.53
2023-05-12T15:59:20.415Z,11.22
2023-05-12T16:01:47.362Z,11.12
2023-05-12T16:04:14.387Z,10.97
2023-05-12T16:06:41.298Z,10.94
2023-05-12T16:09:09.566Z,11.21
2023-05-12T16:11:36.525Z,11.39
2023-05-12T16:14:03.394Z,11.04
2023-05-12T16:16:30.527Z,11.19
2023-05-12T16:18:57.867Z,11.13
2023-05-12T16:21:24.895Z,11.26
2023-05-12T16:23:51.808Z,11.51
2023-05-12T16:26:19.469Z,11.55
2023-05-12T16:28:46.386Z,11.96
2023-05-12T16:31:18.020Z,12.49
2023-05-12T16:33:45.242Z,13.16
2023-05-12T16:36:12.129Z,13.77
2023-05-12T16:38:38.968Z,14.50
2023-05-12T16:41:05.908Z,15.26
2023-05-12T16:43:32.764Z,15.93
2023-05-12T16:46:01.335Z,16.20
2023-05-12T16:48:33.603Z,16.81
2023-05-12T16:51:02.551Z,17.58
2023-05-12T16:53:30.201Z,18.34
2023-05-12T16:55:58.093Z,18.32
2023-05-12T16:58:26.133Z,18.34
2023-05-12T17:00:53.173Z,18.27
2023-05-12T17:03:20.228Z,18.66
2023-05-12T17:05:53.311Z,19.47
2023-05-12T17:08:27.328Z,20.33
2023-05-12T17:10:54.483Z,21.01
2023-05-12T17:13:21.623Z,21.22
2023-05-12T17:15:48.632Z,21.56
2023-05-12T17:18:15.558Z,21.64
2023-05-12T17:20:42.358Z,21.43
2023-05-12T17:23:09.614Z,22.48
2023-05-12T17:25:36.800Z,22.63
2023-05-12T17:28:04.632Z,23.31
2023-05-12T17:30:32.132Z,24.42
2023-05-12T17:32:58.996Z,25.89
2023-05-12T17:35:25.974Z,26.87
2023-05-12T17:37:55.590Z,27.80
2023-05-12T17:40:22.684Z,28.66
2023-05-12T17:42:50.386Z,29.55
2023-05-12T17:45:17.575Z,30.09
2023-05-12T17:47:45.016Z,30.25
2023-05-12T17:50:12.822Z,30.30
2023-05-12T17:52:39.898Z,30.61
2023-05-12T17:55:07.130Z,30.65
2023-05-12T17:57:34.453Z,30.67
2023-05-12T18:00:05.795Z,30.09
2023-05-12T18:02:41.264Z,29.47
2023-05-12T18:05:09.165Z,30.06
2023-05-12T18:07:36.352Z,30.43
2023-05-12T18:10:03.341Z,30.92
2023-05-12T18:12:30.230Z,31.54
2023-05-12T18:14:57.257Z,32.19
2023-05-12T18:17:24.279Z,32.56
2023-05-12T18:19:51.474Z,33.25
2023-05-12T18:22:18.520Z,34.25
2023-05-12T18:24:45.638Z,35.40
2023-05-12T18:27:12.544Z,36.21
2023-05-12T18:29:39.306Z,36.76
2023-05-12T18:32:06.237Z,37.09
2023-05-12T18:34:33.704Z,37.36
2023-05-12T18:37:00.795Z,37.60
2023-05-12T18:39:28.419Z,37.73
2023-05-12T18:41:55.494Z,38.30
2023-05-12T18:44:22.442Z,38.76
2023-05-12T18:46:49.353Z,39.12
2023-05-12T18:49:16.518Z,38.63
2023-05-12T18:51:43.488Z,38.02
2023-05-12T18:54:10.718Z,38.05
2023-05-12T18:56:37.608Z,38.23
2023-05-12T18:59:04.675Z,37.86
2023-05-12T19:01:32.010Z,37.36
2023-05-12T19:03:59.191Z,37.58
2023-05-12T19:06:26.841Z,38.01
2023-05-12T19:08:53.930Z,38.18
2023-05-12T19:11:21.122Z,38.49
2023-05-12T19:13:50.734Z,38.65
2023-05-12T19:16:18.469Z,38.87
2023-05-12T19:18:46.054Z,39.08
2023-05-12T19:21:13.156Z,39.03
2023-05-12T19:23:40.177Z,39.31
2023-05-12T19:26:07.434Z,39.43
2023-05-12T19:28:34.386Z,39.67
2023-05-12T19:31:01.363Z,39.83
2023-05-12T19:33:29.526Z,39.36
2023-05-12T19:35:56.746Z,39.09
2023-05-12T19:38:23.930Z,39.27
2023-05-12T19:40:50.961Z,38.97
2023-05-12T19:43:17.932Z,38.94
2023-05-12T19:45:44.825Z,39.17
2023-05-12T19:48:12.007Z,39.86
2023-05-12T19:50:39.125Z,40.52
2023-05-12T19:53:06.067Z,40.25
2023-05-12T19:55:33.159Z,40.05
2023-05-12T19:58:02.045Z,40.22
2023-05-12T20:00:28.988Z,40.63
2023-05-12T20:02:56.063Z,41.00
2023-05-12T20:05:23.415Z,41.59
2023-05-12T20:07:51.153Z,42.08
2023-05-12T20:10:18.281Z,42.84
2023-05-12T20:12:45.097Z,43.47
2023-05-12T20:15:12.192Z,44.20
2023-05-12T20:17:39.179Z,44.30
2023-05-12T20:20:07.186Z,44.44
2023-05-12T20:22:34.111Z,44.61
2023-05-12T20:25:04.516Z,44.83
2023-05-12T20:27:32.239Z,45.09
2023-05-12T20:29:59.229Z,45.32
2023-05-12T20:32:26.193Z,45.40
2023-05-12T20:34:53.115Z,45.63
2023-05-12T20:37:20.731Z,46.33
2023-05-12T20:39:47.660Z,47.43
2023-05-12T20:42:14.720Z,48.24
2023-05-12T20:44:42.434Z,48.71
2023-05-12T20:47:09.977Z,48.91
2023-05-12T20:49:37.103Z,49.03
2023-05-12T20:52:04.152Z,49.28
2023-05-12T20:54:31.011Z,49.61
2023-05-12T20:56:57.868Z,49.71
2023-05-12T20:59:24.801Z,49.89
2023-05-12T21:01:51.730Z,49.95
2023-05-12T21:04:18.803Z,50.28
2023-05-12T21:06:45.796Z,50.83
2023-05-12T21:09:12.667Z,51.19
2023-05-12T21:11:39.615Z,51.30
2023-05-12T21:14:06.512Z,51.26
2023-05-12T21:16:33.609Z,51.36
2023-05-12T21:19:00.577Z,51.37
2023-05-12T21:21:28.800Z,51.35
2023-05-12T21:23:55.838Z,51.65
2023-05-12T21:26:22.739Z,51.83
2023-05-12T21:28:49.577Z,51.90
2023-05-12T21:31:16.526Z,51.69
2023-05-12T21:33:43.499Z,51.50
2023-05-12T21:36:10.303Z,51.05
2023-05-12T21:38:37.194Z,50.69
2023-05-12T21:41:04.248Z,50.81
2023-05-12T21:43:31.263Z,51.15
2023-05-12T21:46:03.111Z,51.48
2023-05-12T21:48:30.084Z,51.63
2023-05-12T21:50:59.112Z,51.67
2023-05-12T21:53:26.109Z,51.92
2023-05-12T21:55:53.265Z,51.87
2023-05-12T21:58:20.159Z,51.92
2023-05-12T22:00:47.095Z,51.70
2023-05-12T22:03:14.152Z,51.52
2023-05-12T22:05:41.037Z,51.67
2023-05-12T22:08:07.892Z,51.95
2023-05-12T22:10:34.753Z,52.64
2023-05-12T22:13:01.796Z,53.35
2023-05-12T22:15:28.940Z,53.78
2023-05-12T22:17:55.908Z,54.00
2023-05-12T22:20:23.474Z,54.20
2023-05-12T22:22:50.473Z,54.40
2023-05-12T22:25:17.357Z,54.49
2023-05-12T22:28:37.456Z,55.15
2023-05-12T22:31:04.376Z,54.50
2023-05-12T22:33:32.519Z,54.30
2023-05-12T22:36:00.302Z,54.22
2023-05-12T22:38:27.676Z,54.22
2023-05-12T22:40:54.557Z,54.27
2023-05-12T22:43:21.508Z,54.27
2023-05-12T22:45:52.260Z,54.27
2023-05-12T22:48:19.829Z,54.47
2023-05-12T22:50:46.654Z,54.72
2023-05-12T22:53:13.674Z,54.99
2023-05-12T22:55:40.548Z,55.06
2023-05-12T22:58:07.561Z,54.85
2023-05-12T23:00:34.527Z,54.77
2023-05-12T23:03:03.415Z,54.97
2023-05-12T23:05:30.495Z,55.17
2023-05-12T23:07:57.540Z,55.50
2023-05-12T23:10:24.624Z,55.40
2023-05-12T23:12:51.669Z,55.30
2023-05-12T23:15:18.642Z,55.31
2023-05-12T23:17:45.535Z,55.35
2023-05-12T23:20:12.951Z,55.47
2023-05-12T23:22:39.784Z,55.41
2023-05-12T23:25:07.345Z,55.22
2023-05-12T23:27:34.362Z,54.93
2023-05-12T23:30:01.169Z,54.70
2023-05-12T23:32:28.274Z,54.55
2023-05-12T23:34:55.252Z,54.56
2023-05-12T23:37:22.191Z,54.42
2023-05-12T23:39:49.152Z,54.58
2023-05-12T23:42:17.237Z,54.78
2023-05-12T23:44:44.152Z,55.07
2023-05-12T23:47:11.038Z,55.36
2023-05-12T23:49:38.010Z,55.45
2023-05-12T23:52:05.109Z,55.72
2023-05-12T23:54:32.027Z,55.56
2023-05-12T23:56:58.851Z,55.57
2023-05-12T23:59:25.697Z,56.23
